createdAt,value
2023-02-26T00:00:14.017Z,99475.86
2023-02-26T00:03:06.515Z,99474.83
2023-02-26T00:05:38.799Z,99479.77
2023-02-26T00:08:11.234Z,99479.93
2023-02-26T00:10:43.652Z,99479.20
2023-02-26T00:13:17.169Z,99481.29
2023-02-26T00:15:52.581Z,99463.49
2023-02-26T00:18:25.763Z,99461.36
2023-02-26T00:20:59.417Z,99463.38
2023-02-26T00:23:32.387Z,99459.40
2023-02-26T00:26:04.718Z,99454.36
2023-02-26T00:28:38.295Z,99449.05
2023-02-26T00:31:12.530Z,99468.38
2023-02-26T00:33:46.736Z,99468.86
2023-02-26T00:36:26.092Z,99462.35
2023-02-26T00:39:11.284Z,99461.10
2023-02-26T00:41:44.724Z,99468.79
2023-02-26T00:44:18.483Z,99469.95
2023-02-26T00:46:55.718Z,99460.94
2023-02-26T00:49:40.085Z,99459.81
2023-02-26T00:52:20.610Z,99451.81
2023-02-26T00:54:52.854Z,99446.09
2023-02-26T00:57:25.190Z,99440.29
2023-02-26T00:59:57.571Z,99431.16
2023-02-26T01:02:31.045Z,99429.40
2023-02-26T01:05:04.774Z,99425.75
2023-02-26T01:07:46.739Z,99427.32
2023-02-26T01:10:21.160Z,99422.78
2023-02-26T01:12:56.085Z,99424.08
2023-02-26T01:15:29.431Z,99425.00
2023-02-26T01:18:11.343Z,99422.23
2023-02-26T01:20:49.106Z,99424.00
2023-02-26T01:23:27.264Z,99427.48
2023-02-26T01:26:03.673Z,99435.58
2023-02-26T01:28:37.262Z,99439.06
2023-02-26T01:31:20.543Z,99442.91
2023-02-26T01:33:57.858Z,99451.23
2023-02-26T01:36:37.638Z,99452.58
2023-02-26T01:39:14.006Z,99453.73
2023-02-26T01:41:51.283Z,99459.14
2023-02-26T01:44:28.909Z,99455.80
2023-02-26T01:47:13.002Z,99454.19
2023-02-26T01:49:46.269Z,99443.86
2023-02-26T01:52:48.926Z,99434.52
2023-02-26T01:55:24.763Z,99436.73
2023-02-26T01:57:57.432Z,99443.63
2023-02-26T02:00:30.311Z,99431.46
2023-02-26T02:03:03.330Z,99435.38
2023-02-26T02:05:43.190Z,99428.75
2023-02-26T02:08:16.916Z,99429.27
2023-02-26T02:10:52.638Z,99421.11
2023-02-26T02:13:37.053Z,99419.06
2023-02-26T02:16:22.548Z,99414.98
2023-02-26T02:19:04.434Z,99424.27
2023-02-26T02:21:55.585Z,99424.73
2023-02-26T02:24:41.495Z,99425.84
2023-02-26T02:27:20.406Z,99430.04
2023-02-26T02:30:11.263Z,99433.85
2023-02-26T02:32:48.592Z,99434.16
2023-02-26T02:35:26.046Z,99433.48
2023-02-26T02:38:05.684Z,99441.42
2023-02-26T02:40:43.086Z,99442.68
2023-02-26T02:43:19.846Z,99445.64
2023-02-26T02:45:56.108Z,99440.15
2023-02-26T02:48:33.522Z,99444.61
2023-02-26T02:51:10.066Z,99444.23
2023-02-26T02:53:45.625Z,99449.00
2023-02-26T02:56:22.117Z,99447.81
2023-02-26T02:58:59.429Z,99451.47
2023-02-26T03:01:34.535Z,99455.13
2023-02-26T03:04:10.411Z,99458.68
2023-02-26T03:06:41.075Z,99451.66
2023-02-26T03:09:14.372Z,99456.28
2023-02-26T03:11:46.719Z,99455.41
2023-02-26T03:14:19.466Z,99451.56
2023-02-26T03:17:15.410Z,99463.84
2023-02-26T03:20:01.166Z,99463.52
2023-02-26T03:22:41.219Z,99459.69
2023-02-26T03:25:18.164Z,99456.30
2023-02-26T03:27:56.528Z,99461.73
2023-02-26T03:30:35.590Z,99456.79
2023-02-26T03:33:15.305Z,99455.92
2023-02-26T03:35:54.929Z,99455.02
2023-02-26T03:38:34.313Z,99443.37
2023-02-26T03:41:11.267Z,99436.41
2023-02-26T03:43:47.719Z,99435.06
2023-02-26T03:46:23.869Z,99438.90
2023-02-26T03:48:59.333Z,99433.23
2023-02-26T03:51:32.267Z,99424.80
2023-02-26T03:54:09.967Z,99417.70
2023-02-26T03:56:45.207Z,99417.27
2023-02-26T03:59:18.603Z,99411.73
2023-02-26T04:01:56.143Z,99408.81
2023-02-26T04:04:33.965Z,99406.34
2023-02-26T04:07:06.520Z,99404.16
2023-02-26T04:09:39.145Z,99407.90
2023-02-26T04:12:11.880Z,99416.49
2023-02-26T04:14:44.296Z,99426.56
2023-02-26T04:17:18.629Z,99422.23
2023-02-26T04:19:51.244Z,99435.32
2023-02-26T04:22:23.694Z,99433.25
2023-02-26T04:24:55.997Z,99442.83
2023-02-26T04:27:28.410Z,99429.66
2023-02-26T04:30:00.762Z,99419.02
2023-02-26T04:32:33.195Z,99409.23
2023-02-26T04:35:05.977Z,99405.34
2023-02-26T04:37:38.348Z,99407.05
2023-02-26T04:40:13.212Z,99402.12
2023-02-26T04:42:47.418Z,99395.95
2023-02-26T04:45:20.078Z,99383.63
2023-02-26T04:47:52.445Z,99387.03
2023-02-26T04:50:24.805Z,99377.48
2023-02-26T04:52:57.211Z,99376.85
2023-02-26T04:55:29.595Z,99385.06
2023-02-26T04:58:01.859Z,99386.77
2023-02-26T05:00:34.933Z,99391.98
2023-02-26T05:03:08.844Z,99400.27
2023-02-26T05:05:41.315Z,99396.27
2023-02-26T05:08:14.264Z,99400.00
2023-02-26T05:10:47.122Z,99406.88
2023-02-26T05:13:19.543Z,99402.85
2023-02-26T05:15:54.446Z,99409.50
2023-02-26T05:18:26.868Z,99407.77
2023-02-26T05:20:59.877Z,99413.71
2023-02-26T05:23:32.154Z,99425.91
2023-02-26T05:26:05.040Z,99425.23
2023-02-26T05:28:38.286Z,99435.70
2023-02-26T05:31:10.922Z,99439.30
2023-02-26T05:33:43.977Z,99434.11
2023-02-26T05:36:16.438Z,99430.59
2023-02-26T05:38:48.725Z,99426.78
2023-02-26T05:41:21.238Z,99428.30
2023-02-26T05:43:53.995Z,99420.38
2023-02-26T05:46:26.554Z,99428.52
2023-02-26T05:48:59.088Z,99432.56
2023-02-26T05:51:31.613Z,99443.00
2023-02-26T05:54:03.964Z,99452.66
2023-02-26T05:56:36.236Z,99456.45
2023-02-26T05:59:08.465Z,99449.54
2023-02-26T06:01:40.860Z,99456.10
2023-02-26T06:04:13.166Z,99464.41
2023-02-26T06:06:45.494Z,99472.36
2023-02-26T06:09:18.139Z,99482.13
2023-02-26T06:11:50.506Z,99494.76
2023-02-26T06:14:22.945Z,99494.08
2023-02-26T06:16:55.374Z,99493.53
2023-02-26T06:19:27.828Z,99496.80
2023-02-26T06:22:00.216Z,99497.84
2023-02-26T06:24:32.505Z,99513.36
2023-02-26T06:27:04.798Z,99522.86
2023-02-26T06:29:37.790Z,99518.49
2023-02-26T06:32:10.457Z,99519.39
2023-02-26T06:34:42.938Z,99521.05
2023-02-26T06:37:15.442Z,99528.55
2023-02-26T06:39:47.834Z,99529.17
2023-02-26T06:42:20.416Z,99532.62
2023-02-26T06:44:52.798Z,99524.91
2023-02-26T06:47:25.121Z,99515.35
2023-02-26T06:49:57.601Z,99510.99
2023-02-26T06:52:29.918Z,99516.83
2023-02-26T06:55:02.248Z,99517.31
2023-02-26T06:57:34.749Z,99517.95
2023-02-26T07:00:09.439Z,99523.16
2023-02-26T07:02:41.931Z,99523.21
2023-02-26T07:05:14.517Z,99523.38
2023-02-26T07:07:47.180Z,99521.06
2023-02-26T07:10:21.714Z,99521.19
2023-02-26T07:12:54.133Z,99519.27
2023-02-26T07:15:26.577Z,99521.42
2023-02-26T07:18:00.264Z,99518.70
2023-02-26T07:20:32.899Z,99521.41
2023-02-26T07:23:05.606Z,99524.77
2023-02-26T07:25:38.675Z,99523.56
2023-02-26T07:28:11.055Z,99524.67
2023-02-26T07:30:43.528Z,99526.98
2023-02-26T07:33:16.180Z,99531.52
2023-02-26T07:35:48.506Z,99537.80
2023-02-26T07:38:20.913Z,99541.90
2023-02-26T07:40:55.692Z,99545.90
2023-02-26T07:43:27.983Z,99546.65
2023-02-26T07:46:00.504Z,99547.64
2023-02-26T07:48:32.887Z,99545.92
2023-02-26T07:51:07.430Z,99543.79
2023-02-26T07:53:40.180Z,99549.80
2023-02-26T07:56:12.541Z,99551.10
2023-02-26T07:58:44.902Z,99544.42
2023-02-26T08:01:17.356Z,99539.80
2023-02-26T08:03:49.668Z,99541.55
2023-02-26T08:06:21.954Z,99541.36
2023-02-26T08:08:54.242Z,99543.18
2023-02-26T08:11:26.616Z,99544.48
2023-02-26T08:13:59.116Z,99542.20
2023-02-26T08:16:31.503Z,99544.89
2023-02-26T08:19:03.800Z,99548.16
2023-02-26T08:21:36.172Z,99548.48
2023-02-26T08:24:09.128Z,99549.19
2023-02-26T08:26:41.489Z,99544.27
2023-02-26T08:29:14.083Z,99543.60
2023-02-26T08:31:47.064Z,99544.66
2023-02-26T08:34:19.553Z,99546.95
2023-02-26T08:36:51.930Z,99549.17
2023-02-26T08:39:24.385Z,99545.90
2023-02-26T08:41:56.691Z,99547.07
2023-02-26T08:44:29.042Z,99543.45
2023-02-26T08:47:01.370Z,99543.14
2023-02-26T08:49:33.776Z,99546.77
2023-02-26T08:52:06.368Z,99543.64
2023-02-26T08:54:38.853Z,99545.56
2023-02-26T08:57:11.217Z,99540.70
2023-02-26T08:59:43.716Z,99539.02
2023-02-26T09:02:16.218Z,99540.93
2023-02-26T09:04:48.605Z,99542.02
2023-02-26T09:07:20.923Z,99538.95
2023-02-26T09:09:53.200Z,99533.89
2023-02-26T09:12:25.702Z,99530.35
2023-02-26T09:14:59.275Z,99529.45
2023-02-26T09:17:31.607Z,99525.57
2023-02-26T09:20:04.959Z,99527.57
2023-02-26T09:22:38.159Z,99525.09
2023-02-26T09:25:12.157Z,99529.15
2023-02-26T09:27:44.489Z,99530.13
2023-02-26T09:30:18.371Z,99524.86
2023-02-26T09:32:50.867Z,99526.45
2023-02-26T09:35:23.569Z,99519.42
2023-02-26T09:37:55.874Z,99518.80
2023-02-26T09:40:38.257Z,99513.09
2023-02-26T09:43:35.272Z,99513.05
2023-02-26T09:46:13.814Z,99506.08
2023-02-26T09:48:47.739Z,99510.98
2023-02-26T09:51:23.826Z,99510.28
2023-02-26T09:54:01.017Z,99505.02
2023-02-26T09:56:38.169Z,99507.10
2023-02-26T09:59:12.285Z,99508.13
2023-02-26T10:01:52.400Z,99510.13
2023-02-26T10:04:40.921Z,99514.41
2023-02-26T10:07:23.161Z,99508.71
2023-02-26T10:10:06.848Z,99504.27
2023-02-26T10:12:42.062Z,99500.20
2023-02-26T10:15:19.388Z,99491.73
2023-02-26T10:18:04.642Z,99492.08
2023-02-26T10:20:43.234Z,99489.21
2023-02-26T10:23:26.388Z,99488.41
2023-02-26T10:26:04.525Z,99481.48
2023-02-26T10:28:52.343Z,99486.45
2023-02-26T10:31:33.875Z,99482.33
2023-02-26T10:34:23.213Z,99482.86
2023-02-26T10:37:05.800Z,99475.79
2023-02-26T10:39:45.787Z,99477.37
2023-02-26T10:42:25.900Z,99478.29
2023-02-26T10:45:09.131Z,99473.95
2023-02-26T10:47:51.318Z,99471.20
2023-02-26T10:50:26.726Z,99478.39
2023-02-26T10:53:00.315Z,99474.02
2023-02-26T10:55:40.591Z,99473.32
2023-02-26T10:58:16.803Z,99481.02
2023-02-26T11:00:53.954Z,99479.41
2023-02-26T11:03:35.666Z,99477.58
2023-02-26T11:06:09.614Z,99473.58
2023-02-26T11:08:45.359Z,99477.70
2023-02-26T11:11:39.152Z,99477.52
2023-02-26T11:14:12.822Z,99475.04
2023-02-26T11:16:50.407Z,99464.34
2023-02-26T11:19:28.650Z,99470.56
2023-02-26T11:22:04.278Z,99473.79
2023-02-26T11:24:37.401Z,99470.40
2023-02-26T11:27:13.655Z,99459.88
2023-02-26T11:29:50.651Z,99464.55
2023-02-26T11:32:30.040Z,99465.98
2023-02-26T11:35:02.514Z,99471.55
2023-02-26T11:37:39.741Z,99469.23
2023-02-26T11:40:18.810Z,99469.16
2023-02-26T11:42:54.784Z,99472.19
2023-02-26T11:45:27.764Z,99469.17
2023-02-26T11:48:05.236Z,99474.95
2023-02-26T11:50:44.283Z,99475.92
2023-02-26T11:53:25.497Z,99480.67
2023-02-26T11:56:03.710Z,99475.33
2023-02-26T11:58:41.067Z,99475.91
2023-02-26T12:01:14.950Z,99478.06
2023-02-26T12:03:51.280Z,99475.62
2023-02-26T12:06:25.835Z,99464.89
2023-02-26T12:08:58.479Z,99466.46
2023-02-26T12:11:57.796Z,99471.35
2023-02-26T12:14:48.666Z,99473.31
2023-02-26T12:17:33.430Z,99469.77
2023-02-26T12:20:20.115Z,99474.43
2023-02-26T12:23:03.544Z,99475.16
2023-02-26T12:25:53.921Z,99479.11
2023-02-26T12:28:55.485Z,99480.35
2023-02-26T12:31:45.685Z,99482.83
2023-02-26T12:34:29.639Z,99482.70
2023-02-26T12:37:31.210Z,99488.09
2023-02-26T12:40:13.641Z,99482.98
2023-02-26T12:42:57.570Z,99484.13
2023-02-26T12:45:42.177Z,99484.19
2023-02-26T12:48:51.315Z,99485.64
2023-02-26T12:51:39.891Z,99492.46
2023-02-26T12:54:32.319Z,99497.30
2023-02-26T12:57:36.938Z,99494.83
2023-02-26T13:00:28.898Z,99491.83
2023-02-26T13:03:46.404Z,99490.95
2023-02-26T13:06:52.814Z,99493.60
2023-02-26T13:09:34.480Z,99488.48
2023-02-26T13:12:18.867Z,99487.13
2023-02-26T13:15:01.680Z,99495.21
2023-02-26T13:17:41.567Z,99488.77
2023-02-26T13:20:18.967Z,99492.94
2023-02-26T13:22:54.586Z,99491.94
2023-02-26T13:25:29.492Z,99498.55
2023-02-26T13:28:05.487Z,99498.44
2023-02-26T13:30:42.534Z,99508.06
2023-02-26T13:33:22.159Z,99503.98
2023-02-26T13:35:56.899Z,99507.17
2023-02-26T13:38:40.903Z,99499.25
2023-02-26T13:41:18.088Z,99502.80
2023-02-26T13:44:03.160Z,99507.21
2023-02-26T13:46:49.693Z,99502.31
2023-02-26T13:49:30.111Z,99505.95
2023-02-26T13:52:02.566Z,99507.18
2023-02-26T13:54:46.658Z,99511.77
2023-02-26T13:57:44.396Z,99511.25
2023-02-26T14:00:32.913Z,99516.34
2023-02-26T14:03:31.162Z,99517.11
2023-02-26T14:06:39.396Z,99523.27
2023-02-26T14:09:55.456Z,99531.13
2023-02-26T14:12:36.461Z,99528.68
2023-02-26T14:15:40.828Z,99538.91
2023-02-26T14:18:31.558Z,99538.09
2023-02-26T14:21:35.886Z,99544.62
2023-02-26T14:24:20.355Z,99535.98
2023-02-26T14:27:05.729Z,99541.43
2023-02-26T14:29:44.498Z,99557.44
2023-02-26T14:32:28.638Z,99553.42
2023-02-26T14:35:06.427Z,99558.79
2023-02-26T14:37:42.725Z,99560.70
2023-02-26T14:40:19.342Z,99558.14
2023-02-26T14:42:54.520Z,99561.59
2023-02-26T14:45:31.873Z,99554.92
2023-02-26T14:48:06.900Z,99559.38
2023-02-26T14:50:47.795Z,99563.71
2023-02-26T14:53:47.213Z,99557.72
2023-02-26T14:56:28.414Z,99558.92
2023-02-26T14:59:18.107Z,99566.86
2023-02-26T15:01:57.756Z,99571.07
2023-02-26T15:05:00.051Z,99574.42
2023-02-26T15:07:49.909Z,99582.18
2023-02-26T15:10:45.085Z,99583.79
2023-02-26T15:13:36.695Z,99582.71
2023-02-26T15:16:20.064Z,99593.55
2023-02-26T15:19:15.036Z,99592.59
2023-02-26T15:22:02.370Z,99598.81
2023-02-26T15:24:35.422Z,99611.27
2023-02-26T15:27:11.345Z,99618.95
2023-02-26T15:29:44.802Z,99622.56
2023-02-26T15:32:25.130Z,99618.54
2023-02-26T15:35:02.867Z,99625.86
2023-02-26T15:37:35.678Z,99624.59
2023-02-26T15:40:11.052Z,99632.54
2023-02-26T15:42:46.424Z,99632.67
2023-02-26T15:45:24.287Z,99635.27
2023-02-26T15:48:00.430Z,99638.23
2023-02-26T15:50:39.043Z,99637.58
2023-02-26T15:53:15.535Z,99644.15
2023-02-26T15:55:52.464Z,99647.00
2023-02-26T15:58:32.381Z,99638.95
2023-02-26T16:01:07.193Z,99644.16
2023-02-26T16:03:41.288Z,99646.02
2023-02-26T16:06:17.562Z,99652.92
2023-02-26T16:08:50.132Z,99661.27
2023-02-26T16:11:24.098Z,99664.65
2023-02-26T16:13:56.732Z,99662.26
2023-02-26T16:16:36.069Z,99666.41
2023-02-26T16:19:11.012Z,99674.60
2023-02-26T16:21:44.649Z,99682.41
2023-02-26T16:24:21.176Z,99686.33
2023-02-26T16:26:57.712Z,99690.17
2023-02-26T16:29:32.033Z,99693.23
2023-02-26T16:32:06.151Z,99693.48
2023-02-26T16:34:44.564Z,99703.67
2023-02-26T16:37:33.344Z,99707.75
2023-02-26T16:40:24.164Z,99705.70
2023-02-26T16:43:01.989Z,99712.92
2023-02-26T16:45:54.071Z,99720.10
2023-02-26T16:48:31.664Z,99722.20
2023-02-26T16:51:07.641Z,99729.79
2023-02-26T16:53:45.898Z,99731.80
2023-02-26T16:56:21.596Z,99735.07
2023-02-26T16:58:56.019Z,99736.84
2023-02-26T17:01:28.757Z,99744.55
2023-02-26T17:04:04.086Z,99745.75
2023-02-26T17:06:40.093Z,99748.73
2023-02-26T17:09:32.121Z,99762.88
2023-02-26T17:12:14.022Z,99771.62
2023-02-26T17:14:49.580Z,99780.65
2023-02-26T17:17:21.902Z,99785.09
2023-02-26T17:19:54.436Z,99790.20
2023-02-26T17:22:30.120Z,99798.66
2023-02-26T17:25:02.519Z,99805.45
2023-02-26T17:27:37.666Z,99817.84
2023-02-26T17:30:17.214Z,99822.67
2023-02-26T17:32:49.807Z,99830.20
2023-02-26T17:35:22.240Z,99839.50
2023-02-26T17:37:54.935Z,99851.29
2023-02-26T17:40:29.508Z,99855.23
2023-02-26T17:43:03.891Z,99859.90
2023-02-26T17:45:38.109Z,99865.48
2023-02-26T17:48:12.743Z,99866.06
2023-02-26T17:50:48.328Z,99872.41
2023-02-26T17:53:22.362Z,99870.37
2023-02-26T17:55:56.658Z,99882.34
2023-02-26T17:58:32.264Z,99898.83
2023-02-26T18:01:05.314Z,99899.67
2023-02-26T18:03:39.930Z,99903.25
2023-02-26T18:06:15.022Z,99916.73
2023-02-26T18:08:48.750Z,99923.11
2023-02-26T18:11:24.073Z,99926.02
2023-02-26T18:13:57.041Z,99925.75
2023-02-26T18:16:34.244Z,99935.15
2023-02-26T18:19:07.719Z,99935.56
2023-02-26T18:21:40.063Z,99934.88
2023-02-26T18:24:12.666Z,99937.91
2023-02-26T18:26:45.154Z,99940.08
2023-02-26T18:29:17.460Z,99939.12
2023-02-26T18:31:50.075Z,99940.68
2023-02-26T18:34:23.792Z,99944.22
2023-02-26T18:36:56.086Z,99943.52
2023-02-26T18:39:32.640Z,99947.91
2023-02-26T18:42:05.159Z,99963.16
2023-02-26T18:44:37.572Z,99959.50
2023-02-26T18:47:10.419Z,99961.57
2023-02-26T18:49:42.928Z,99965.30
2023-02-26T18:52:15.984Z,99972.70
2023-02-26T18:54:48.210Z,99972.52
2023-02-26T18:57:20.498Z,99977.56
2023-02-26T18:59:53.033Z,99983.95
2023-02-26T19:02:25.583Z,99990.52
2023-02-26T19:04:58.094Z,99993.63
2023-02-26T19:07:30.745Z,100000.48
2023-02-26T19:10:03.603Z,100002.34
2023-02-26T19:12:36.315Z,100008.09
2023-02-26T19:15:11.473Z,100015.23
2023-02-26T19:17:44.188Z,100020.59
2023-02-26T19:20:18.725Z,100018.98
2023-02-26T19:22:51.004Z,100019.63
2023-02-26T19:25:27.237Z,100029.06
2023-02-26T19:27:59.587Z,100025.30
2023-02-26T19:30:32.268Z,100029.04
2023-02-26T19:33:05.119Z,100038.33
2023-02-26T19:35:37.819Z,100039.27
2023-02-26T19:38:10.535Z,100045.55
2023-02-26T19:40:43.764Z,100050.32
2023-02-26T19:43:16.205Z,100054.13
2023-02-26T19:45:48.592Z,100063.86
2023-02-26T19:48:21.300Z,100074.45
2023-02-26T19:50:56.005Z,100083.79
2023-02-26T19:53:29.646Z,100088.10
2023-02-26T19:56:02.353Z,100086.13
2023-02-26T19:58:35.137Z,100087.45
2023-02-26T20:01:08.127Z,100088.93
2023-02-26T20:03:40.606Z,100093.38
2023-02-26T20:06:13.880Z,100093.05
2023-02-26T20:08:46.359Z,100096.25
2023-02-26T20:11:18.680Z,100108.90
2023-02-26T20:13:51.185Z,100111.69
2023-02-26T20:16:23.519Z,100115.40
2023-02-26T20:18:55.825Z,100118.99
2023-02-26T20:21:28.882Z,100126.23
2023-02-26T20:24:01.455Z,100127.39
2023-02-26T20:26:34.175Z,100127.73
2023-02-26T20:29:06.569Z,100131.55
2023-02-26T20:31:39.447Z,100136.73
2023-02-26T20:34:11.983Z,100139.13
2023-02-26T20:36:45.537Z,100137.23
2023-02-26T20:39:19.630Z,100143.02
2023-02-26T20:41:52.058Z,100141.67
2023-02-26T20:44:24.896Z,100151.30
2023-02-26T20:46:57.231Z,100142.98
2023-02-26T20:49:30.292Z,100150.33
2023-02-26T20:52:02.822Z,100153.49
2023-02-26T20:54:35.284Z,100155.55
2023-02-26T20:57:07.732Z,100149.05
2023-02-26T20:59:40.252Z,100156.80
2023-02-26T21:02:15.600Z,100163.73
2023-02-26T21:04:48.107Z,100168.34
2023-02-26T21:07:23.084Z,100153.20
2023-02-26T21:09:55.747Z,100157.80
2023-02-26T21:12:31.011Z,100157.55
2023-02-26T21:15:03.598Z,100159.27
2023-02-26T21:17:35.911Z,100157.13
2023-02-26T21:20:10.526Z,100162.18
2023-02-26T21:22:43.270Z,100162.45
2023-02-26T21:25:15.595Z,100161.91
2023-02-26T21:27:48.003Z,100167.67
2023-02-26T21:30:21.073Z,100175.73
2023-02-26T21:32:53.684Z,100182.83
2023-02-26T21:35:26.070Z,100184.53
2023-02-26T21:38:00.399Z,100195.01
2023-02-26T21:40:32.800Z,100198.27
2023-02-26T21:43:05.305Z,100199.91
2023-02-26T21:45:37.670Z,100211.09
2023-02-26T21:48:10.416Z,100212.06
2023-02-26T21:50:42.722Z,100214.52
2023-02-26T21:53:14.953Z,100219.57
2023-02-26T21:55:47.258Z,100217.92
2023-02-26T21:58:19.678Z,100223.29
2023-02-26T22:00:52.701Z,100220.82
2023-02-26T22:03:25.135Z,100216.67
2023-02-26T22:05:57.485Z,100218.17
2023-02-26T22:08:29.810Z,100228.66
2023-02-26T22:11:02.258Z,100232.59
2023-02-26T22:13:34.653Z,100241.05
2023-02-26T22:16:08.121Z,100235.56
2023-02-26T22:18:40.792Z,100238.46
2023-02-26T22:21:13.566Z,100238.59
2023-02-26T22:23:45.837Z,100247.53
2023-02-26T22:26:18.451Z,100240.34
2023-02-26T22:28:50.911Z,100242.55
2023-02-26T22:31:23.198Z,100240.09
2023-02-26T22:33:56.574Z,100247.79
2023-02-26T22:36:30.277Z,100256.02
2023-02-26T22:39:02.672Z,100262.67
2023-02-26T22:41:35.692Z,100261.63
2023-02-26T22:44:08.781Z,100261.89
2023-02-26T22:46:41.145Z,100263.47
2023-02-26T22:49:13.465Z,100268.52
2023-02-26T22:51:45.891Z,100266.38
2023-02-26T22:54:18.267Z,100272.48
2023-02-26T22:56:50.572Z,100270.81
2023-02-26T22:59:22.861Z,100265.55
2023-02-26T23:01:55.270Z,100258.50
2023-02-26T23:04:28.083Z,100263.02
2023-02-26T23:07:00.284Z,100270.15
2023-02-26T23:09:32.728Z,100272.25
2023-02-26T23:12:05.417Z,100272.35
2023-02-26T23:14:37.959Z,100272.27
2023-02-26T23:17:11.508Z,100263.95
2023-02-26T23:19:44.182Z,100267.53
2023-02-26T23:22:16.634Z,100271.55
2023-02-26T23:24:48.998Z,100270.88
2023-02-26T23:27:21.298Z,100275.73
2023-02-26T23:29:53.731Z,100275.38
2023-02-26T23:32:26.090Z,100277.14
2023-02-26T23:34:59.087Z,100277.77
2023-02-26T23:37:31.398Z,100279.79
2023-02-26T23:40:04.077Z,100270.89
2023-02-26T23:42:36.838Z,100279.29
2023-02-26T23:45:11.181Z,100273.36
2023-02-26T23:47:43.576Z,100275.92
2023-02-26T23:50:16.471Z,100275.20
2023-02-26T23:52:48.737Z,100276.38
2023-02-26T23:55:21.050Z,100262.66
2023-02-26T23:57:53.656Z,100270.40
